Albion, Rhode Island
Current Conditions -  °F | °C
As of 2:55 PM on Sunday 23 Nov 2014 (Local Time) from KSFZ Reporting Station
Clear Clear  
Wind Chill: 14°   Ceiling: Unl
Heat Index: 14°   Visibility: 10mi
Dew Point: -1°   Wind: 3mph
Humidity: 36%   Direction: 190°S
Pressure: 30.11"   Gusts: NA
Location:  41.95°N, 71.45°W
Report Text: KSFZ 231955Z 19003KT 10SM CLR 14/M01 A3011 RMK AO1
Loading
Personal Weather Stations






























Interactive Weather Map New forecast layout! Learn more

10-Day Weather Forecast

Advertisements
Track Severe Weather on mobile